Terminal Aerodrome Forecast
Issued by NWS Twin Cities, MN

Home | Current Version | Previous Version | Graphics & Text | Print | Product List | Glossary On
Versions: 1 2 3 4 5 6 7 8 9 10 11 12 13 14 15 16 17 18 19 20 21
000
FTUS43 KMPX 220500 CCA
TAFSTC
TAF COR
KSTC 220544Z 2206/2306 30021KT P6SM VCTS BKN025CB BKN120
      TEMPO 2206/2207 -TSRA BKN050CB OVC100
     FM220700 21013KT P6SM SCT060 BKN100
     FM221400 31017G25KT P6SM SCT040 SCT250
     FM230000 34008KT P6SM FEW250=

USA.gov is the U.S. government's official web portal to all federal, state and local government web resources and services.